createdAt,value
2018-11-07T00:01:55.161Z,6.70
2018-11-07T00:04:22.706Z,7.50
2018-11-07T00:06:50.242Z,7.10
2018-11-07T00:09:17.841Z,7.77
2018-11-07T00:11:45.434Z,8.10
2018-11-07T00:14:12.976Z,7.70
2018-11-07T00:16:40.495Z,8.60
2018-11-07T00:19:08.029Z,7.80
2018-11-07T00:21:35.707Z,7.33
2018-11-07T00:24:03.371Z,8.73
2018-11-07T00:26:31.089Z,8.40
2018-11-07T00:28:58.648Z,8.60
2018-11-07T00:31:26.257Z,8.97
2018-11-07T00:33:53.814Z,8.23
2018-11-07T00:36:21.382Z,8.23
2018-11-07T00:38:48.915Z,8.20
2018-11-07T00:41:16.513Z,9.50
2018-11-07T00:43:44.045Z,8.60
2018-11-07T00:46:11.569Z,8.00
2018-11-07T00:48:39.100Z,9.00
2018-11-07T00:51:06.640Z,9.20
2018-11-07T00:53:34.314Z,10.80
2018-11-07T00:56:02.001Z,9.60
2018-11-07T00:58:29.591Z,10.70
2018-11-07T01:00:57.284Z,10.07
2018-11-07T01:03:24.848Z,10.40
2018-11-07T01:05:52.426Z,10.87
2018-11-07T01:08:20.498Z,10.90
2018-11-07T01:10:48.094Z,12.97
2018-11-07T01:13:15.621Z,10.93
2018-11-07T01:15:43.216Z,9.80
2018-11-07T01:18:10.744Z,10.43
2018-11-07T01:20:38.294Z,10.77
2018-11-07T01:23:05.876Z,11.13
2018-11-07T01:25:33.440Z,10.90
2018-11-07T01:28:01.112Z,11.37
2018-11-07T01:30:28.695Z,11.83
2018-11-07T01:32:56.260Z,11.13
2018-11-07T01:35:23.783Z,11.43
2018-11-07T01:37:51.378Z,11.00
2018-11-07T01:40:18.940Z,11.37
2018-11-07T01:42:46.598Z,11.17
2018-11-07T01:45:14.164Z,11.90
2018-11-07T01:47:41.770Z,10.90
2018-11-07T01:50:10.990Z,11.70
2018-11-07T01:52:38.602Z,11.83
2018-11-07T01:55:06.574Z,11.80
2018-11-07T01:57:34.368Z,10.80
2018-11-07T02:00:01.967Z,11.80
2018-11-07T02:02:29.638Z,10.47
2018-11-07T02:04:57.393Z,11.23
2018-11-07T02:07:24.983Z,10.80
2018-11-07T02:09:53.054Z,10.00
2018-11-07T02:12:20.641Z,11.40
2018-11-07T02:14:48.253Z,11.63
2018-11-07T02:17:15.849Z,10.70
2018-11-07T02:19:43.527Z,10.37
2018-11-07T02:22:11.097Z,11.00
2018-11-07T02:24:38.621Z,10.63
2018-11-07T02:27:06.195Z,10.73
2018-11-07T02:29:33.789Z,10.00
2018-11-07T02:32:01.300Z,10.63
2018-11-07T02:34:28.845Z,12.35
2018-11-07T02:36:56.443Z,10.87
2018-11-07T02:39:23.955Z,10.37
2018-11-07T02:41:51.673Z,10.88
2018-11-07T02:44:19.205Z,10.82
2018-11-07T02:46:46.779Z,12.40
2018-11-07T02:49:14.291Z,11.47
2018-11-07T02:51:41.837Z,11.85
2018-11-07T02:54:09.411Z,10.48
2018-11-07T02:56:37.064Z,10.63
2018-11-07T02:59:04.797Z,10.08
2018-11-07T03:01:32.441Z,10.18
2018-11-07T03:04:00.053Z,10.32
2018-11-07T03:06:27.617Z,11.40
2018-11-07T03:08:55.192Z,11.53
2018-11-07T03:11:22.789Z,11.55
2018-11-07T03:13:50.572Z,12.07
2018-11-07T03:16:18.182Z,11.65
2018-11-07T03:18:45.760Z,11.22
2018-11-07T03:21:13.348Z,12.28
2018-11-07T03:23:40.905Z,11.60
2018-11-07T03:26:08.490Z,12.05
2018-11-07T03:28:36.066Z,12.03
2018-11-07T03:31:03.699Z,11.03
2018-11-07T03:33:31.239Z,13.08
2018-11-07T03:35:58.793Z,11.08
2018-11-07T03:38:26.377Z,13.28
2018-11-07T03:40:54.040Z,12.45
2018-11-07T03:43:21.724Z,12.35
2018-11-07T03:45:54.872Z,11.60
2018-11-07T03:48:22.562Z,11.78
2018-11-07T03:50:50.268Z,11.73
2018-11-07T03:53:17.931Z,12.80
2018-11-07T03:55:45.506Z,10.90
2018-11-07T03:58:13.042Z,10.90
2018-11-07T04:00:40.590Z,10.20
2018-11-07T04:03:08.226Z,10.90
2018-11-07T04:05:35.742Z,10.98
2018-11-07T04:08:03.306Z,10.40
2018-11-07T04:10:30.838Z,10.25
2018-11-07T04:12:58.399Z,10.03
2018-11-07T04:15:25.966Z,10.80
2018-11-07T04:17:53.591Z,10.98
2018-11-07T04:20:21.214Z,10.72
2018-11-07T04:22:48.811Z,11.57
2018-11-07T04:25:16.385Z,11.97
2018-11-07T04:27:43.934Z,10.82
2018-11-07T04:30:12.450Z,10.45
2018-11-07T04:32:40.360Z,10.75
2018-11-07T04:35:09.125Z,11.73
2018-11-07T04:37:36.839Z,11.30
2018-11-07T04:40:04.948Z,9.78
2018-11-07T04:42:32.481Z,11.53
2018-11-07T04:45:00.034Z,13.95
2018-11-07T04:47:27.586Z,11.35
2018-11-07T04:49:55.141Z,10.20
2018-11-07T04:52:22.775Z,10.50
2018-11-07T04:54:50.819Z,8.90
2018-11-07T04:57:18.411Z,9.03
2018-11-07T04:59:45.977Z,9.60
2018-11-07T05:02:13.485Z,7.40
2018-11-07T05:04:41.015Z,7.43
2018-11-07T05:07:08.924Z,8.13
2018-11-07T05:09:36.710Z,7.63
2018-11-07T05:12:05.067Z,9.87
2018-11-07T05:14:32.673Z,11.17
2018-11-07T05:17:00.309Z,10.27
2018-11-07T05:19:27.946Z,12.50
2018-11-07T05:21:55.497Z,10.70
2018-11-07T05:24:23.079Z,10.70
2018-11-07T05:26:50.756Z,10.50
2018-11-07T05:29:18.328Z,10.47
2018-11-07T05:31:45.937Z,10.73
2018-11-07T05:34:13.437Z,10.67
2018-11-07T05:36:41.025Z,10.98
2018-11-07T05:39:09.367Z,13.88
2018-11-07T05:41:37.166Z,12.75
2018-11-07T05:44:04.861Z,13.75
2018-11-07T05:46:32.440Z,12.13
2018-11-07T05:49:00.084Z,12.73
2018-11-07T05:51:27.704Z,14.20
2018-11-07T05:53:55.328Z,13.58
2018-11-07T05:56:23.198Z,13.93
2018-11-07T05:58:50.881Z,15.53
2018-11-07T06:01:18.500Z,14.78
2018-11-07T06:03:46.030Z,15.23
2018-11-07T06:06:13.639Z,14.07
2018-11-07T06:08:41.186Z,13.18
2018-11-07T06:11:08.771Z,14.18
2018-11-07T06:13:36.382Z,14.28
2018-11-07T06:16:03.985Z,15.60
2018-11-07T06:18:31.496Z,14.58
2018-11-07T06:20:59.000Z,14.03
2018-11-07T06:23:26.566Z,14.60
2018-11-07T06:25:54.150Z,15.10
2018-11-07T06:28:21.874Z,17.67
2018-11-07T06:30:49.547Z,15.32
2018-11-07T06:33:17.138Z,17.80
2018-11-07T06:35:44.730Z,15.72
2018-11-07T06:38:12.312Z,15.35
2018-11-07T06:40:39.903Z,15.15
2018-11-07T06:43:07.486Z,15.68
2018-11-07T06:45:35.090Z,18.90
2018-11-07T06:48:02.687Z,17.98
2018-11-07T06:50:30.257Z,16.27
2018-11-07T06:52:57.844Z,15.65
2018-11-07T06:55:25.422Z,15.38
2018-11-07T06:57:53.100Z,15.85
2018-11-07T07:00:20.702Z,14.87
2018-11-07T07:02:48.334Z,16.17
2018-11-07T07:05:16.171Z,15.30
2018-11-07T07:07:43.775Z,14.35
2018-11-07T07:10:13.597Z,14.38
2018-11-07T07:12:41.247Z,13.83
2018-11-07T07:15:10.900Z,11.80
2018-11-07T07:17:38.786Z,12.00
2018-11-07T07:20:09.016Z,13.43
2018-11-07T07:22:36.569Z,12.10
2018-11-07T07:25:05.437Z,12.43
2018-11-07T07:27:32.973Z,13.07
2018-11-07T07:30:00.519Z,14.47
2018-11-07T07:32:28.057Z,14.10
2018-11-07T07:34:55.635Z,13.03
2018-11-07T07:37:23.295Z,13.85
2018-11-07T07:39:50.869Z,13.50
2018-11-07T07:42:18.443Z,14.17
2018-11-07T07:44:46.021Z,15.50
2018-11-07T07:47:13.596Z,14.65
2018-11-07T07:49:41.111Z,13.10
2018-11-07T07:52:08.767Z,17.20
2018-11-07T07:54:36.279Z,15.20
2018-11-07T07:57:03.867Z,14.90
2018-11-07T07:59:31.417Z,14.25
2018-11-07T08:01:58.941Z,15.45
2018-11-07T08:04:26.455Z,13.60
2018-11-07T08:06:54.100Z,15.90
2018-11-07T08:09:21.695Z,17.42
2018-11-07T08:11:49.371Z,17.53
2018-11-07T08:14:16.954Z,15.00
2018-11-07T08:16:44.489Z,16.07
2018-11-07T08:19:12.023Z,16.20
2018-11-07T08:21:39.569Z,17.33
2018-11-07T08:24:07.225Z,18.05
2018-11-07T08:26:35.183Z,15.50
2018-11-07T08:29:02.942Z,17.23
2018-11-07T08:31:30.796Z,17.10
2018-11-07T08:33:58.381Z,18.17
2018-11-07T08:36:27.149Z,18.47
2018-11-07T08:38:54.783Z,17.93
2018-11-07T08:41:22.382Z,18.13
2018-11-07T08:43:49.992Z,17.73
2018-11-07T08:46:17.967Z,16.53
2018-11-07T08:48:45.558Z,18.20
2018-11-07T08:51:13.384Z,19.50
2018-11-07T08:53:40.986Z,17.27
2018-11-07T08:56:08.688Z,17.60
2018-11-07T08:58:36.268Z,16.43
2018-11-07T09:01:03.935Z,17.13
2018-11-07T09:03:31.512Z,16.90
2018-11-07T09:05:59.056Z,18.40
2018-11-07T09:08:26.606Z,17.20
2018-11-07T09:10:54.234Z,17.87
2018-11-07T09:13:21.903Z,17.17
2018-11-07T09:15:49.602Z,14.90
2018-11-07T09:18:17.179Z,17.60
2018-11-07T09:20:44.794Z,15.67
2018-11-07T09:23:12.336Z,19.80
2018-11-07T09:25:39.928Z,15.90
2018-11-07T09:28:07.494Z,18.00
2018-11-07T09:30:35.054Z,17.27
2018-11-07T09:33:02.643Z,15.40
2018-11-07T09:35:30.193Z,18.83
2018-11-07T09:37:57.757Z,17.33
2018-11-07T09:40:25.761Z,14.17
2018-11-07T09:42:53.393Z,16.60
2018-11-07T09:45:21.931Z,16.73
2018-11-07T09:47:49.609Z,17.17
2018-11-07T09:50:17.916Z,19.97
2018-11-07T09:52:45.657Z,15.63
2018-11-07T09:55:15.280Z,15.73
2018-11-07T09:57:42.995Z,16.10
2018-11-07T10:00:12.139Z,18.30
2018-11-07T10:02:40.300Z,18.63
2018-11-07T10:05:08.579Z,16.07
2018-11-07T10:07:36.488Z,15.07
2018-11-07T10:10:05.578Z,16.60
2018-11-07T10:12:33.166Z,17.97
2018-11-07T10:15:00.678Z,17.27
2018-11-07T10:17:28.216Z,17.20
2018-11-07T10:19:55.789Z,16.23
2018-11-07T10:22:23.375Z,18.40
2018-11-07T10:24:51.029Z,16.90
2018-11-07T10:27:18.792Z,18.87
2018-11-07T10:29:46.371Z,18.63
2018-11-07T10:32:13.831Z,19.37
2018-11-07T10:34:41.454Z,15.50
2018-11-07T10:37:09.051Z,14.80
2018-11-07T10:39:36.700Z,27.30
2018-11-07T10:42:04.306Z,17.63
2018-11-07T10:44:32.004Z,16.83
2018-11-07T10:46:59.492Z,15.20
2018-11-07T10:49:27.140Z,16.57
2018-11-07T10:51:54.795Z,14.27
2018-11-07T10:54:22.354Z,18.37
2018-11-07T10:56:50.002Z,16.00
2018-11-07T10:59:17.529Z,14.00
2018-11-07T11:01:50.668Z,15.13
2018-11-07T11:04:18.254Z,13.63
2018-11-07T11:06:45.824Z,13.63
2018-11-07T11:09:13.614Z,14.67
2018-11-07T11:11:41.173Z,15.23
2018-11-07T11:14:09.573Z,13.03
2018-11-07T11:16:37.170Z,14.30
2018-11-07T11:19:05.152Z,12.97
2018-11-07T11:21:32.680Z,13.17
2018-11-07T11:24:00.220Z,12.73
2018-11-07T11:26:27.806Z,12.90
2018-11-07T11:28:55.354Z,12.30
2018-11-07T11:31:23.016Z,12.63
2018-11-07T11:33:50.697Z,11.47
2018-11-07T11:36:18.232Z,11.30
2018-11-07T11:38:45.858Z,11.17
2018-11-07T11:41:13.465Z,12.47
2018-11-07T11:43:40.987Z,12.00
2018-11-07T11:46:08.671Z,11.80
2018-11-07T11:48:36.267Z,9.83
2018-11-07T11:51:04.176Z,11.90
2018-11-07T11:53:31.718Z,11.37
2018-11-07T11:55:59.271Z,10.20
2018-11-07T11:58:26.831Z,12.13
2018-11-07T12:00:54.398Z,10.33
2018-11-07T12:03:22.035Z,8.67
2018-11-07T12:05:49.695Z,8.13
2018-11-07T12:08:17.327Z,7.20
2018-11-07T12:10:44.947Z,7.40
2018-11-07T12:13:12.557Z,8.20
2018-11-07T12:15:40.159Z,7.23
2018-11-07T12:18:07.807Z,7.80
2018-11-07T12:20:35.370Z,7.83
2018-11-07T12:23:02.964Z,6.63
2018-11-07T12:25:30.531Z,6.50
2018-11-07T12:27:58.046Z,9.37
2018-11-07T12:30:25.611Z,7.17
2018-11-07T12:32:54.067Z,10.17
2018-11-07T12:35:22.089Z,10.30
2018-11-07T12:37:49.701Z,8.93
2018-11-07T12:40:17.878Z,6.63
2018-11-07T12:42:45.577Z,9.20
2018-11-07T12:45:14.161Z,9.10
2018-11-07T12:47:41.745Z,8.80
2018-11-07T12:50:12.992Z,11.70
2018-11-07T12:52:40.805Z,8.80
2018-11-07T12:55:09.739Z,9.13
2018-11-07T12:57:37.575Z,9.00
2018-11-07T13:00:10.932Z,8.20
2018-11-07T13:02:38.624Z,8.33
2018-11-07T13:05:06.859Z,9.10
2018-11-07T13:07:34.471Z,8.23
2018-11-07T13:10:02.085Z,8.00
2018-11-07T13:12:29.618Z,7.57
2018-11-07T13:14:57.151Z,10.10
2018-11-07T13:17:24.725Z,8.60
2018-11-07T13:19:52.338Z,8.20
2018-11-07T13:22:20.070Z,6.63
2018-11-07T13:24:47.663Z,7.47
2018-11-07T13:27:15.241Z,10.47
2018-11-07T13:29:42.882Z,9.70
2018-11-07T13:32:10.472Z,9.20
2018-11-07T13:34:38.156Z,10.17
2018-11-07T13:37:05.823Z,9.40
2018-11-07T13:39:33.281Z,8.87
2018-11-07T13:42:00.837Z,9.20
2018-11-07T13:44:28.400Z,8.43
2018-11-07T13:46:55.922Z,7.93
2018-11-07T13:49:23.573Z,9.10
2018-11-07T13:51:51.179Z,9.27
2018-11-07T13:54:18.816Z,7.80
2018-11-07T13:56:46.356Z,11.70
2018-11-07T13:59:13.976Z,8.87
2018-11-07T14:01:41.500Z,10.70
2018-11-07T14:04:09.140Z,10.37
2018-11-07T14:06:36.683Z,9.50
2018-11-07T14:09:07.015Z,11.00
2018-11-07T14:11:34.671Z,11.87
2018-11-07T14:14:02.303Z,14.07
2018-11-07T14:16:30.129Z,9.53
2018-11-07T14:18:57.698Z,11.03
2018-11-07T14:21:25.301Z,11.50
2018-11-07T14:23:53.034Z,8.33
2018-11-07T14:26:20.826Z,12.10
2018-11-07T14:28:48.604Z,8.50
2018-11-07T14:31:16.186Z,8.50
2018-11-07T14:33:43.876Z,11.40
2018-11-07T14:36:11.402Z,11.40
2018-11-07T14:38:39.097Z,15.37
2018-11-07T14:41:06.688Z,14.30
2018-11-07T14:43:34.258Z,15.60
2018-11-07T14:46:01.989Z,17.93
2018-11-07T14:48:29.726Z,16.83
2018-11-07T14:50:57.291Z,18.00
2018-11-07T14:53:24.858Z,17.77
2018-11-07T14:55:52.470Z,17.80
2018-11-07T14:58:20.091Z,18.30
2018-11-07T15:00:49.438Z,17.23
2018-11-07T15:03:18.898Z,18.13
2018-11-07T15:05:47.138Z,18.23
2018-11-07T15:08:15.157Z,18.63
2018-11-07T15:10:42.923Z,18.87
2018-11-07T15:13:10.593Z,19.97
2018-11-07T15:15:38.219Z,19.83
2018-11-07T15:18:05.811Z,20.47
2018-11-07T15:20:33.411Z,19.47
2018-11-07T15:23:01.021Z,19.90
2018-11-07T15:25:28.669Z,19.40
2018-11-07T15:27:56.298Z,18.53
2018-11-07T15:30:23.943Z,19.23
2018-11-07T15:32:51.632Z,19.07
2018-11-07T15:35:19.301Z,20.33
2018-11-07T15:37:46.913Z,18.43
2018-11-07T15:40:16.376Z,19.70
2018-11-07T15:42:44.480Z,18.57
2018-11-07T15:45:15.466Z,18.77
2018-11-07T15:47:43.718Z,17.90
2018-11-07T15:50:16.902Z,19.23
2018-11-07T15:52:45.372Z,19.30
2018-11-07T15:55:13.072Z,31.40
2018-11-07T15:57:40.700Z,52.00
2018-11-07T16:00:10.391Z,61.80
2018-11-07T16:02:38.384Z,61.13
2018-11-07T16:05:06.653Z,31.07
2018-11-07T16:07:34.314Z,31.43
2018-11-07T16:10:01.929Z,26.03
2018-11-07T16:12:29.514Z,21.50
2018-11-07T16:14:57.179Z,21.97
2018-11-07T16:17:24.851Z,21.63
2018-11-07T16:19:52.540Z,21.50
2018-11-07T16:22:20.222Z,20.07
2018-11-07T16:24:47.934Z,19.80
2018-11-07T16:27:15.517Z,19.33
2018-11-07T16:29:43.128Z,19.67
2018-11-07T16:32:10.762Z,22.13
2018-11-07T16:34:38.374Z,17.80
2018-11-07T16:37:06.015Z,18.03
2018-11-07T16:39:33.746Z,16.80
2018-11-07T16:42:01.584Z,25.60
2018-11-07T16:44:29.286Z,49.30
2018-11-07T16:46:57.017Z,40.90
2018-11-07T16:49:24.709Z,44.80
2018-11-07T16:51:52.382Z,33.40
2018-11-07T16:54:21.216Z,27.73
2018-11-07T16:56:49.186Z,21.73
2018-11-07T16:59:17.184Z,20.40
2018-11-07T17:01:44.871Z,21.87
2018-11-07T17:04:12.590Z,18.97
2018-11-07T17:06:40.480Z,20.53
2018-11-07T17:09:08.938Z,18.00
2018-11-07T17:11:36.613Z,19.77
2018-11-07T17:14:04.587Z,19.47
2018-11-07T17:16:32.219Z,19.40
2018-11-07T17:18:59.907Z,19.30
2018-11-07T17:21:27.567Z,18.93
2018-11-07T17:23:55.759Z,18.10
2018-11-07T17:26:23.372Z,19.10
2018-11-07T17:28:51.127Z,19.27
2018-11-07T17:31:18.882Z,20.83
2018-11-07T17:33:46.507Z,18.57
2018-11-07T17:36:14.163Z,20.33
2018-11-07T17:38:41.810Z,19.90
2018-11-07T17:41:09.411Z,20.80
2018-11-07T17:43:37.809Z,22.10
2018-11-07T17:46:05.715Z,22.57
2018-11-07T17:48:33.707Z,20.60
2018-11-07T17:51:07.884Z,19.90
2018-11-07T17:53:37.366Z,19.27
2018-11-07T17:56:05.376Z,23.17
2018-11-07T17:58:33.097Z,20.27
2018-11-07T18:01:00.755Z,20.00
2018-11-07T18:03:28.441Z,16.97
2018-11-07T18:05:56.349Z,18.20
2018-11-07T18:08:24.003Z,16.87
2018-11-07T18:10:52.660Z,19.27
2018-11-07T18:13:20.391Z,18.43
2018-11-07T18:15:48.119Z,17.10
2018-11-07T18:18:15.794Z,16.57
2018-11-07T18:20:43.497Z,17.63
2018-11-07T18:23:11.205Z,17.40
2018-11-07T18:25:38.996Z,18.10
2018-11-07T18:28:07.694Z,19.53
2018-11-07T18:30:35.406Z,17.83
2018-11-07T18:33:03.636Z,18.47
2018-11-07T18:35:31.323Z,19.37
2018-11-07T18:37:59.106Z,19.60
2018-11-07T18:40:27.123Z,21.83
2018-11-07T18:42:55.016Z,24.30
2018-11-07T18:45:22.707Z,21.63
2018-11-07T18:47:50.418Z,20.23
2018-11-07T18:50:19.258Z,20.70
2018-11-07T18:52:47.161Z,23.60
2018-11-07T18:55:15.773Z,26.13
2018-11-07T18:57:43.994Z,23.83
2018-11-07T19:00:13.340Z,22.87
2018-11-07T19:02:41.543Z,22.20
2018-11-07T19:05:09.647Z,22.43
2018-11-07T19:07:38.027Z,26.20
2018-11-07T19:10:08.293Z,24.80
2018-11-07T19:12:36.116Z,22.93
2018-11-07T19:15:04.774Z,22.20
2018-11-07T19:17:33.434Z,23.63
2018-11-07T19:20:01.172Z,21.00
2018-11-07T19:22:28.880Z,21.10
2018-11-07T19:24:56.570Z,21.10
2018-11-07T19:27:25.184Z,18.87
2018-11-07T19:29:52.985Z,18.87
2018-11-07T19:32:21.443Z,19.83
2018-11-07T19:34:49.188Z,22.13
2018-11-07T19:37:17.520Z,20.83
2018-11-07T19:39:45.254Z,20.83
2018-11-07T19:42:12.986Z,19.23
2018-11-07T19:44:41.021Z,22.93
2018-11-07T19:47:08.794Z,23.90
2018-11-07T19:49:37.242Z,23.03
2018-11-07T19:52:05.103Z,21.63
2018-11-07T19:54:32.973Z,20.82
2018-11-07T19:57:00.963Z,26.70
2018-11-07T19:59:28.644Z,29.60
2018-11-07T20:01:56.345Z,29.57
2018-11-07T20:04:24.177Z,28.10
2018-11-07T20:06:53.316Z,26.15
2018-11-07T20:09:21.259Z,26.20
2018-11-07T20:11:49.075Z,26.30
2018-11-07T20:14:17.614Z,26.63
2018-11-07T20:16:47.453Z,25.40
2018-11-07T20:19:15.416Z,27.90
2018-11-07T20:21:43.254Z,26.10
2018-11-07T20:24:11.126Z,25.30
2018-11-07T20:26:39.111Z,27.75
2018-11-07T20:29:07.889Z,27.98
2018-11-07T20:31:35.579Z,26.07
2018-11-07T20:34:03.437Z,23.60
2018-11-07T20:36:31.470Z,22.90
2018-11-07T20:38:59.180Z,22.20
2018-11-07T20:41:26.951Z,26.02
2018-11-07T20:43:54.674Z,23.42
2018-11-07T20:46:23.087Z,21.60
2018-11-07T20:48:51.876Z,23.30
2018-11-07T20:51:19.588Z,25.45
2018-11-07T20:53:47.342Z,24.20
2018-11-07T20:56:15.138Z,23.55
2018-11-07T20:58:42.968Z,23.22
2018-11-07T21:01:10.823Z,25.85
2018-11-07T21:03:38.608Z,26.10
2018-11-07T21:06:06.322Z,25.55
2018-11-07T21:08:35.231Z,23.35
2018-11-07T21:11:02.925Z,23.00
2018-11-07T21:13:30.624Z,22.10
2018-11-07T21:15:58.322Z,21.60
2018-11-07T21:18:27.136Z,23.25
2018-11-07T21:20:54.937Z,24.00
2018-11-07T21:23:23.006Z,25.10
2018-11-07T21:25:50.884Z,24.77
2018-11-07T21:28:18.744Z,26.48
2018-11-07T21:30:46.509Z,23.42
2018-11-07T21:33:14.102Z,24.95
2018-11-07T21:35:41.869Z,25.82
2018-11-07T21:38:09.558Z,26.12
2018-11-07T21:40:37.285Z,25.35
2018-11-07T21:43:05.089Z,29.20
2018-11-07T21:45:33.152Z,28.05
2018-11-07T21:48:00.859Z,27.00
2018-11-07T21:50:28.612Z,23.85
2018-11-07T21:52:56.230Z,23.10
2018-11-07T21:55:24.061Z,23.65
2018-11-07T21:57:51.778Z,27.22
2018-11-07T22:00:19.893Z,25.47
2018-11-07T22:02:47.592Z,23.62
2018-11-07T22:05:16.290Z,24.95
2018-11-07T22:07:43.978Z,25.40
2018-11-07T22:10:12.667Z,24.75
2018-11-07T22:12:40.462Z,22.75
2018-11-07T22:15:08.916Z,24.05
2018-11-07T22:17:36.639Z,22.15
2018-11-07T22:20:07.041Z,23.77
2018-11-07T22:22:34.613Z,22.40
2018-11-07T22:25:02.192Z,22.65
2018-11-07T22:27:29.816Z,23.47
2018-11-07T22:29:59.007Z,22.42
2018-11-07T22:32:26.649Z,24.02
2018-11-07T22:34:55.887Z,24.30
2018-11-07T22:37:23.542Z,22.62
2018-11-07T22:39:51.323Z,25.20
2018-11-07T22:42:18.915Z,22.05
2018-11-07T22:44:46.465Z,22.50
2018-11-07T22:47:14.038Z,24.82
2018-11-07T22:49:41.594Z,23.83
2018-11-07T22:52:09.334Z,24.77
2018-11-07T22:54:36.907Z,25.68
2018-11-07T22:57:04.558Z,26.52
2018-11-07T22:59:32.107Z,22.58
2018-11-07T23:01:59.714Z,22.65
2018-11-07T23:04:27.304Z,23.22
2018-11-07T23:06:54.989Z,27.00
2018-11-07T23:09:22.664Z,28.45
2018-11-07T23:11:50.440Z,27.55
2018-11-07T23:14:18.204Z,25.48
2018-11-07T23:16:45.822Z,24.37
2018-11-07T23:19:13.440Z,24.05
2018-11-07T23:21:41.066Z,26.10
2018-11-07T23:24:08.862Z,23.02
2018-11-07T23:26:36.482Z,23.67
2018-11-07T23:29:04.218Z,23.47
2018-11-07T23:31:31.836Z,22.37
2018-11-07T23:34:00.008Z,23.12
2018-11-07T23:36:27.577Z,25.23
2018-11-07T23:38:55.228Z,23.57
2018-11-07T23:41:22.999Z,21.73
2018-11-07T23:43:50.703Z,24.43
2018-11-07T23:46:18.408Z,21.23
2018-11-07T23:48:46.010Z,22.90
2018-11-07T23:51:13.727Z,24.85
2018-11-07T23:53:41.329Z,25.30
2018-11-07T23:56:09.072Z,26.05
2018-11-07T23:58:36.707Z,24.72
